sensor_id;sensor_type;location;lat;lon;timestamp;P1;durP1;ratioP1;P2;durP2;ratioP2
7487;SDS011;3785;52.260;4.728;2023-01-24T00:03:08;10.60;;;6.55;;
7487;SDS011;3785;52.260;4.728;2023-01-24T00:06:35;9.63;;;6.13;;
7487;SDS011;3785;52.260;4.728;2023-01-24T00:09:56;14.65;;;7.55;;
7487;SDS011;3785;52.260;4.728;2023-01-24T00:13:16;12.32;;;7.10;;
7487;SDS011;3785;52.260;4.728;2023-01-24T00:16:37;12.35;;;7.18;;
7487;SDS011;3785;52.260;4.728;2023-01-24T00:19:57;11.18;;;6.85;;
7487;SDS011;3785;52.260;4.728;2023-01-24T00:23:18;12.45;;;6.97;;
7487;SDS011;3785;52.260;4.728;2023-01-24T00:26:38;9.48;;;6.28;;
7487;SDS011;3785;52.260;4.728;2023-01-24T00:29:59;10.82;;;6.97;;
7487;SDS011;3785;52.260;4.728;2023-01-24T00:33:19;13.00;;;6.97;;
7487;SDS011;3785;52.260;4.728;2023-01-24T00:36:40;11.93;;;6.95;;
7487;SDS011;3785;52.260;4.728;2023-01-24T00:40:01;11.23;;;6.88;;
7487;SDS011;3785;52.260;4.728;2023-01-24T00:43:21;11.93;;;7.45;;
7487;SDS011;3785;52.260;4.728;2023-01-24T00:46:42;12.90;;;7.40;;
7487;SDS011;3785;52.260;4.728;2023-01-24T00:50:02;9.95;;;6.13;;
7487;SDS011;3785;52.260;4.728;2023-01-24T00:53:23;13.00;;;6.70;;
7487;SDS011;3785;52.260;4.728;2023-01-24T00:56:46;11.43;;;6.88;;
7487;SDS011;3785;52.260;4.728;2023-01-24T01:00:06;11.73;;;6.45;;
7487;SDS011;3785;52.260;4.728;2023-01-24T01:03:28;10.27;;;6.32;;
7487;SDS011;3785;52.260;4.728;2023-01-24T01:06:49;13.80;;;7.63;;
7487;SDS011;3785;52.260;4.728;2023-01-24T01:10:10;10.55;;;6.05;;
7487;SDS011;3785;52.260;4.728;2023-01-24T01:13:30;13.02;;;7.22;;
7487;SDS011;3785;52.260;4.728;2023-01-24T01:16:51;11.77;;;6.80;;
7487;SDS011;3785;52.260;4.728;2023-01-24T01:20:11;10.60;;;6.28;;
7487;SDS011;3785;52.260;4.728;2023-01-24T01:23:32;10.48;;;5.88;;
7487;SDS011;3785;52.260;4.728;2023-01-24T01:26:53;10.02;;;6.03;;
7487;SDS011;3785;52.260;4.728;2023-01-24T01:30:13;12.18;;;6.82;;
7487;SDS011;3785;52.260;4.728;2023-01-24T01:33:34;12.70;;;7.05;;
7487;SDS011;3785;52.260;4.728;2023-01-24T01:36:55;11.75;;;7.03;;
7487;SDS011;3785;52.260;4.728;2023-01-24T01:40:16;12.00;;;6.70;;
7487;SDS011;3785;52.260;4.728;2023-01-24T01:43:38;10.45;;;6.80;;
7487;SDS011;3785;52.260;4.728;2023-01-24T01:50:56;11.38;;;6.60;;
7487;SDS011;3785;52.260;4.728;2023-01-24T01:54:24;7.32;;;4.95;;
7487;SDS011;3785;52.260;4.728;2023-01-24T01:57:47;9.82;;;5.32;;
7487;SDS011;3785;52.260;4.728;2023-01-24T02:01:09;14.10;;;6.55;;
7487;SDS011;3785;52.260;4.728;2023-01-24T02:04:30;10.98;;;6.78;;
7487;SDS011;3785;52.260;4.728;2023-01-24T02:08:00;10.38;;;6.35;;
7487;SDS011;3785;52.260;4.728;2023-01-24T02:11:23;11.63;;;6.60;;
7487;SDS011;3785;52.260;4.728;2023-01-24T02:15:11;11.02;;;6.60;;
7487;SDS011;3785;52.260;4.728;2023-01-24T02:18:53;9.57;;;6.03;;
7487;SDS011;3785;52.260;4.728;2023-01-24T02:26:10;8.90;;;5.90;;
7487;SDS011;3785;52.260;4.728;2023-01-24T02:29:31;12.75;;;7.45;;
7487;SDS011;3785;52.260;4.728;2023-01-24T02:32:51;10.35;;;6.00;;
7487;SDS011;3785;52.260;4.728;2023-01-24T02:36:14;10.85;;;6.32;;
7487;SDS011;3785;52.260;4.728;2023-01-24T02:39:53;9.82;;;6.40;;
7487;SDS011;3785;52.260;4.728;2023-01-24T02:43:17;11.77;;;6.53;;
7487;SDS011;3785;52.260;4.728;2023-01-24T02:46:42;11.45;;;6.65;;
7487;SDS011;3785;52.260;4.728;2023-01-24T02:50:04;9.90;;;6.38;;
7487;SDS011;3785;52.260;4.728;2023-01-24T02:53:26;11.25;;;7.07;;
7487;SDS011;3785;52.260;4.728;2023-01-24T02:56:50;11.85;;;7.07;;
7487;SDS011;3785;52.260;4.728;2023-01-24T03:00:29;11.10;;;6.15;;
7487;SDS011;3785;52.260;4.728;2023-01-24T03:03:50;12.90;;;6.90;;
7487;SDS011;3785;52.260;4.728;2023-01-24T03:07:11;9.38;;;5.20;;
7487;SDS011;3785;52.260;4.728;2023-01-24T03:10:31;12.65;;;6.88;;
7487;SDS011;3785;52.260;4.728;2023-01-24T03:13:52;11.32;;;6.72;;
7487;SDS011;3785;52.260;4.728;2023-01-24T03:17:30;10.52;;;5.90;;
7487;SDS011;3785;52.260;4.728;2023-01-24T03:21:10;13.30;;;6.53;;
7487;SDS011;3785;52.260;4.728;2023-01-24T03:24:49;11.10;;;6.68;;
7487;SDS011;3785;52.260;4.728;2023-01-24T03:28:28;10.73;;;6.40;;
7487;SDS011;3785;52.260;4.728;2023-01-24T03:32:07;11.18;;;6.55;;
7487;SDS011;3785;52.260;4.728;2023-01-24T03:35:49;12.10;;;6.95;;
7487;SDS011;3785;52.260;4.728;2023-01-24T03:39:16;9.80;;;5.82;;
7487;SDS011;3785;52.260;4.728;2023-01-24T03:42:55;11.15;;;6.40;;
7487;SDS011;3785;52.260;4.728;2023-01-24T03:46:15;10.98;;;6.32;;
7487;SDS011;3785;52.260;4.728;2023-01-24T03:49:36;11.57;;;6.90;;
7487;SDS011;3785;52.260;4.728;2023-01-24T03:53:15;10.82;;;6.13;;
7487;SDS011;3785;52.260;4.728;2023-01-24T03:56:36;12.50;;;6.70;;
7487;SDS011;3785;52.260;4.728;2023-01-24T03:59:56;12.15;;;6.22;;
7487;SDS011;3785;52.260;4.728;2023-01-24T04:03:17;10.88;;;6.15;;
7487;SDS011;3785;52.260;4.728;2023-01-24T04:06:37;10.95;;;6.07;;
7487;SDS011;3785;52.260;4.728;2023-01-24T04:09:58;12.95;;;6.63;;
7487;SDS011;3785;52.260;4.728;2023-01-24T04:13:18;13.18;;;6.57;;
7487;SDS011;3785;52.260;4.728;2023-01-24T04:16:39;11.63;;;5.85;;
7487;SDS011;3785;52.260;4.728;2023-01-24T04:19:59;10.35;;;5.78;;
7487;SDS011;3785;52.260;4.728;2023-01-24T04:23:20;11.13;;;5.60;;
7487;SDS011;3785;52.260;4.728;2023-01-24T04:26:41;9.43;;;5.20;;
7487;SDS011;3785;52.260;4.728;2023-01-24T04:30:02;9.50;;;5.28;;
7487;SDS011;3785;52.260;4.728;2023-01-24T04:33:27;8.68;;;5.43;;
7487;SDS011;3785;52.260;4.728;2023-01-24T04:36:48;9.40;;;5.35;;
7487;SDS011;3785;52.260;4.728;2023-01-24T04:40:08;10.02;;;5.53;;
7487;SDS011;3785;52.260;4.728;2023-01-24T04:43:29;9.65;;;5.63;;
7487;SDS011;3785;52.260;4.728;2023-01-24T04:46:50;10.90;;;5.25;;
7487;SDS011;3785;52.260;4.728;2023-01-24T04:50:10;8.95;;;5.32;;
7487;SDS011;3785;52.260;4.728;2023-01-24T04:53:31;10.70;;;5.70;;
7487;SDS011;3785;52.260;4.728;2023-01-24T04:56:53;13.20;;;6.20;;
7487;SDS011;3785;52.260;4.728;2023-01-24T05:00:14;11.35;;;6.13;;
7487;SDS011;3785;52.260;4.728;2023-01-24T05:03:35;10.63;;;5.72;;
7487;SDS011;3785;52.260;4.728;2023-01-24T05:06:55;9.88;;;5.30;;
7487;SDS011;3785;52.260;4.728;2023-01-24T05:10:17;9.20;;;5.63;;
7487;SDS011;3785;52.260;4.728;2023-01-24T05:13:38;9.27;;;5.43;;
7487;SDS011;3785;52.260;4.728;2023-01-24T05:16:58;11.10;;;6.25;;
7487;SDS011;3785;52.260;4.728;2023-01-24T05:20:19;12.10;;;6.68;;
7487;SDS011;3785;52.260;4.728;2023-01-24T05:23:39;12.00;;;6.38;;
7487;SDS011;3785;52.260;4.728;2023-01-24T05:27:00;11.07;;;6.28;;
7487;SDS011;3785;52.260;4.728;2023-01-24T05:30:21;11.00;;;5.97;;
7487;SDS011;3785;52.260;4.728;2023-01-24T05:33:41;11.13;;;6.18;;
7487;SDS011;3785;52.260;4.728;2023-01-24T05:37:02;9.98;;;6.38;;
7487;SDS011;3785;52.260;4.728;2023-01-24T05:40:22;13.27;;;7.40;;
7487;SDS011;3785;52.260;4.728;2023-01-24T05:43:43;13.57;;;6.75;;
7487;SDS011;3785;52.260;4.728;2023-01-24T05:47:05;10.10;;;6.25;;
7487;SDS011;3785;52.260;4.728;2023-01-24T05:50:25;11.70;;;6.68;;
7487;SDS011;3785;52.260;4.728;2023-01-24T05:53:46;10.38;;;6.55;;
7487;SDS011;3785;52.260;4.728;2023-01-24T05:57:06;12.27;;;7.05;;
7487;SDS011;3785;52.260;4.728;2023-01-24T06:00:27;12.98;;;7.80;;
7487;SDS011;3785;52.260;4.728;2023-01-24T06:03:48;13.55;;;7.50;;
7487;SDS011;3785;52.260;4.728;2023-01-24T06:07:11;12.32;;;7.20;;
7487;SDS011;3785;52.260;4.728;2023-01-24T06:10:31;12.52;;;6.82;;
7487;SDS011;3785;52.260;4.728;2023-01-24T06:13:52;11.38;;;6.80;;
7487;SDS011;3785;52.260;4.728;2023-01-24T06:17:13;12.52;;;6.82;;
7487;SDS011;3785;52.260;4.728;2023-01-24T06:20:34;13.18;;;7.63;;
7487;SDS011;3785;52.260;4.728;2023-01-24T06:23:55;10.80;;;6.45;;
7487;SDS011;3785;52.260;4.728;2023-01-24T06:27:15;13.60;;;7.28;;
7487;SDS011;3785;52.260;4.728;2023-01-24T06:30:37;11.02;;;6.72;;
7487;SDS011;3785;52.260;4.728;2023-01-24T06:35:04;10.32;;;6.68;;
7487;SDS011;3785;52.260;4.728;2023-01-24T06:37:57;11.48;;;6.57;;
7487;SDS011;3785;52.260;4.728;2023-01-24T06:41:18;12.77;;;7.18;;
7487;SDS011;3785;52.260;4.728;2023-01-24T06:44:38;11.95;;;7.22;;
7487;SDS011;3785;52.260;4.728;2023-01-24T06:47:59;11.18;;;7.10;;
7487;SDS011;3785;52.260;4.728;2023-01-24T06:51:20;11.18;;;6.85;;
7487;SDS011;3785;52.260;4.728;2023-01-24T06:54:40;12.45;;;7.22;;
7487;SDS011;3785;52.260;4.728;2023-01-24T06:58:01;14.55;;;7.75;;
7487;SDS011;3785;52.260;4.728;2023-01-24T07:01:23;12.27;;;7.40;;
7487;SDS011;3785;52.260;4.728;2023-01-24T07:04:43;14.43;;;8.52;;
7487;SDS011;3785;52.260;4.728;2023-01-24T07:08:04;14.73;;;8.40;;
7487;SDS011;3785;52.260;4.728;2023-01-24T07:11:25;15.25;;;8.57;;
7487;SDS011;3785;52.260;4.728;2023-01-24T07:14:46;16.20;;;8.75;;
7487;SDS011;3785;52.260;4.728;2023-01-24T07:18:07;13.93;;;7.53;;
7487;SDS011;3785;52.260;4.728;2023-01-24T07:21:28;12.73;;;7.57;;
7487;SDS011;3785;52.260;4.728;2023-01-24T07:24:49;12.30;;;8.10;;
7487;SDS011;3785;52.260;4.728;2023-01-24T07:28:10;12.68;;;7.63;;
7487;SDS011;3785;52.260;4.728;2023-01-24T07:31:30;12.70;;;8.43;;
7487;SDS011;3785;52.260;4.728;2023-01-24T07:34:51;13.43;;;7.70;;
7487;SDS011;3785;52.260;4.728;2023-01-24T07:38:11;13.23;;;6.97;;
7487;SDS011;3785;52.260;4.728;2023-01-24T07:41:32;12.32;;;7.25;;
7487;SDS011;3785;52.260;4.728;2023-01-24T07:44:52;13.05;;;7.30;;
7487;SDS011;3785;52.260;4.728;2023-01-24T07:48:13;11.10;;;6.60;;
7487;SDS011;3785;52.260;4.728;2023-01-24T07:51:34;10.27;;;6.78;;
7487;SDS011;3785;52.260;4.728;2023-01-24T07:54:54;12.15;;;6.95;;
7487;SDS011;3785;52.260;4.728;2023-01-24T07:58:15;12.82;;;7.18;;
7487;SDS011;3785;52.260;4.728;2023-01-24T08:01:35;13.25;;;6.90;;
7487;SDS011;3785;52.260;4.728;2023-01-24T08:04:56;11.50;;;6.78;;
7487;SDS011;3785;52.260;4.728;2023-01-24T08:08:17;11.02;;;7.07;;
7487;SDS011;3785;52.260;4.728;2023-01-24T08:11:37;11.10;;;6.15;;
7487;SDS011;3785;52.260;4.728;2023-01-24T08:14:58;11.05;;;6.47;;
7487;SDS011;3785;52.260;4.728;2023-01-24T08:18:19;12.00;;;6.75;;
7487;SDS011;3785;52.260;4.728;2023-01-24T08:21:40;11.05;;;6.75;;
7487;SDS011;3785;52.260;4.728;2023-01-24T08:25:00;10.27;;;6.30;;
7487;SDS011;3785;52.260;4.728;2023-01-24T08:28:21;12.30;;;6.18;;
7487;SDS011;3785;52.260;4.728;2023-01-24T08:31:42;10.90;;;6.35;;
7487;SDS011;3785;52.260;4.728;2023-01-24T08:35:02;12.73;;;7.05;;
7487;SDS011;3785;52.260;4.728;2023-01-24T08:38:23;9.98;;;6.38;;
7487;SDS011;3785;52.260;4.728;2023-01-24T08:41:45;11.25;;;6.45;;
7487;SDS011;3785;52.260;4.728;2023-01-24T08:45:06;10.77;;;6.03;;
7487;SDS011;3785;52.260;4.728;2023-01-24T08:48:27;10.05;;;5.63;;
7487;SDS011;3785;52.260;4.728;2023-01-24T08:51:48;11.13;;;6.43;;
7487;SDS011;3785;52.260;4.728;2023-01-24T08:55:10;12.38;;;6.00;;
7487;SDS011;3785;52.260;4.728;2023-01-24T08:58:31;9.90;;;5.55;;
7487;SDS011;3785;52.260;4.728;2023-01-24T09:01:53;11.35;;;6.22;;
7487;SDS011;3785;52.260;4.728;2023-01-24T09:05:13;10.50;;;6.22;;
7487;SDS011;3785;52.260;4.728;2023-01-24T09:08:34;9.90;;;5.93;;
7487;SDS011;3785;52.260;4.728;2023-01-24T09:11:55;11.05;;;6.18;;
7487;SDS011;3785;52.260;4.728;2023-01-24T09:15:16;12.27;;;6.25;;
7487;SDS011;3785;52.260;4.728;2023-01-24T09:18:37;12.88;;;7.75;;
7487;SDS011;3785;52.260;4.728;2023-01-24T09:21:57;10.98;;;6.07;;
7487;SDS011;3785;52.260;4.728;2023-01-24T09:25:18;9.23;;;5.63;;
7487;SDS011;3785;52.260;4.728;2023-01-24T09:28:39;11.95;;;6.30;;
7487;SDS011;3785;52.260;4.728;2023-01-24T09:32:00;11.40;;;6.40;;
7487;SDS011;3785;52.260;4.728;2023-01-24T09:35:20;9.05;;;5.38;;
7487;SDS011;3785;52.260;4.728;2023-01-24T09:38:41;13.63;;;6.40;;
7487;SDS011;3785;52.260;4.728;2023-01-24T09:45:23;10.85;;;6.45;;
7487;SDS011;3785;52.260;4.728;2023-01-24T09:48:52;11.43;;;6.88;;
7487;SDS011;3785;52.260;4.728;2023-01-24T09:53:00;11.57;;;6.20;;
7487;SDS011;3785;52.260;4.728;2023-01-24T09:56:04;11.10;;;6.00;;
7487;SDS011;3785;52.260;4.728;2023-01-24T09:59:42;9.38;;;5.50;;
7487;SDS011;3785;52.260;4.728;2023-01-24T10:03:22;13.25;;;5.70;;
7487;SDS011;3785;52.260;4.728;2023-01-24T10:10:43;11.85;;;6.40;;
7487;SDS011;3785;52.260;4.728;2023-01-24T10:17:56;12.20;;;6.90;;
7487;SDS011;3785;52.260;4.728;2023-01-24T10:21:33;10.48;;;6.38;;
7487;SDS011;3785;52.260;4.728;2023-01-24T10:29:22;13.10;;;7.32;;
7487;SDS011;3785;52.260;4.728;2023-01-24T10:32:44;12.48;;;6.85;;
7487;SDS011;3785;52.260;4.728;2023-01-24T10:39:42;12.88;;;7.53;;
7487;SDS011;3785;52.260;4.728;2023-01-24T10:43:04;10.85;;;5.88;;
7487;SDS011;3785;52.260;4.728;2023-01-24T10:49:53;13.32;;;7.68;;
7487;SDS011;3785;52.260;4.728;2023-01-24T10:53:24;14.30;;;7.80;;
7487;SDS011;3785;52.260;4.728;2023-01-24T10:56:45;12.32;;;7.05;;
7487;SDS011;3785;52.260;4.728;2023-01-24T11:00:17;11.07;;;6.70;;
7487;SDS011;3785;52.260;4.728;2023-01-24T11:03:39;12.82;;;7.70;;
7487;SDS011;3785;52.260;4.728;2023-01-24T11:07:00;13.15;;;7.72;;
7487;SDS011;3785;52.260;4.728;2023-01-24T11:13:55;13.93;;;8.10;;
7487;SDS011;3785;52.260;4.728;2023-01-24T11:17:35;16.05;;;8.25;;
7487;SDS011;3785;52.260;4.728;2023-01-24T11:24:26;13.82;;;6.97;;
7487;SDS011;3785;52.260;4.728;2023-01-24T11:27:48;13.77;;;7.72;;
7487;SDS011;3785;52.260;4.728;2023-01-24T11:31:17;14.77;;;8.80;;
7487;SDS011;3785;52.260;4.728;2023-01-24T11:34:57;16.05;;;8.85;;
7487;SDS011;3785;52.260;4.728;2023-01-24T11:38:35;15.95;;;9.20;;
7487;SDS011;3785;52.260;4.728;2023-01-24T11:42:11;14.82;;;8.68;;
7487;SDS011;3785;52.260;4.728;2023-01-24T11:52:55;16.92;;;9.27;;
7487;SDS011;3785;52.260;4.728;2023-01-24T12:00:34;17.90;;;10.00;;
7487;SDS011;3785;52.260;4.728;2023-01-24T12:04:03;21.25;;;11.20;;
7487;SDS011;3785;52.260;4.728;2023-01-24T12:22:43;16.88;;;9.30;;
7487;SDS011;3785;52.260;4.728;2023-01-24T12:26:09;15.75;;;9.55;;
7487;SDS011;3785;52.260;4.728;2023-01-24T12:33:01;14.40;;;9.77;;
7487;SDS011;3785;52.260;4.728;2023-01-24T12:36:44;13.93;;;8.50;;
7487;SDS011;3785;52.260;4.728;2023-01-24T12:47:20;13.90;;;8.80;;
7487;SDS011;3785;52.260;4.728;2023-01-24T12:54:10;15.73;;;9.13;;
7487;SDS011;3785;52.260;4.728;2023-01-24T12:57:58;16.35;;;8.05;;
7487;SDS011;3785;52.260;4.728;2023-01-24T13:05:23;14.10;;;8.75;;
7487;SDS011;3785;52.260;4.728;2023-01-24T13:12:50;12.75;;;7.95;;
7487;SDS011;3785;52.260;4.728;2023-01-24T13:16:22;15.55;;;7.95;;
7487;SDS011;3785;52.260;4.728;2023-01-24T13:34:13;12.57;;;7.25;;
7487;SDS011;3785;52.260;4.728;2023-01-24T13:37:35;14.77;;;8.80;;
7487;SDS011;3785;52.260;4.728;2023-01-24T13:40:58;14.27;;;9.00;;
7487;SDS011;3785;52.260;4.728;2023-01-24T13:47:47;15.07;;;8.43;;
7487;SDS011;3785;52.260;4.728;2023-01-24T13:54:41;16.45;;;8.85;;
7487;SDS011;3785;52.260;4.728;2023-01-24T14:01:27;14.27;;;7.95;;
7487;SDS011;3785;52.260;4.728;2023-01-24T14:04:47;12.57;;;7.15;;
7487;SDS011;3785;52.260;4.728;2023-01-24T14:11:51;14.73;;;8.23;;
7487;SDS011;3785;52.260;4.728;2023-01-24T14:15:24;15.85;;;8.27;;
7487;SDS011;3785;52.260;4.728;2023-01-24T14:18:47;12.23;;;7.18;;
7487;SDS011;3785;52.260;4.728;2023-01-24T14:22:34;12.50;;;8.02;;
7487;SDS011;3785;52.260;4.728;2023-01-24T14:25:57;14.20;;;8.48;;
7487;SDS011;3785;52.260;4.728;2023-01-24T14:29:21;13.38;;;7.75;;
7487;SDS011;3785;52.260;4.728;2023-01-24T14:32:57;13.77;;;8.25;;
7487;SDS011;3785;52.260;4.728;2023-01-24T14:36:36;14.25;;;8.15;;
7487;SDS011;3785;52.260;4.728;2023-01-24T14:43:39;13.60;;;7.45;;
7487;SDS011;3785;52.260;4.728;2023-01-24T14:47:04;14.43;;;7.70;;
7487;SDS011;3785;52.260;4.728;2023-01-24T14:50:41;14.85;;;8.27;;
7487;SDS011;3785;52.260;4.728;2023-01-24T14:54:02;11.50;;;7.60;;
7487;SDS011;3785;52.260;4.728;2023-01-24T14:57:35;13.10;;;7.20;;
7487;SDS011;3785;52.260;4.728;2023-01-24T15:00:57;13.98;;;8.65;;
7487;SDS011;3785;52.260;4.728;2023-01-24T15:04:20;15.35;;;8.38;;
7487;SDS011;3785;52.260;4.728;2023-01-24T15:07:46;14.25;;;8.10;;
7487;SDS011;3785;52.260;4.728;2023-01-24T15:11:07;12.60;;;7.07;;
7487;SDS011;3785;52.260;4.728;2023-01-24T15:14:48;33.42;;;15.00;;
7487;SDS011;3785;52.260;4.728;2023-01-24T15:21:47;15.80;;;8.63;;
7487;SDS011;3785;52.260;4.728;2023-01-24T15:25:17;15.93;;;7.95;;
7487;SDS011;3785;52.260;4.728;2023-01-24T15:28:38;12.60;;;7.18;;
7487;SDS011;3785;52.260;4.728;2023-01-24T15:32:01;13.80;;;7.03;;
7487;SDS011;3785;52.260;4.728;2023-01-24T15:38:46;14.55;;;7.63;;
7487;SDS011;3785;52.260;4.728;2023-01-24T15:42:13;11.27;;;6.72;;
7487;SDS011;3785;52.260;4.728;2023-01-24T15:45:53;15.52;;;6.85;;
7487;SDS011;3785;52.260;4.728;2023-01-24T15:49:36;14.68;;;7.22;;
7487;SDS011;3785;52.260;4.728;2023-01-24T15:53:10;13.05;;;7.90;;
7487;SDS011;3785;52.260;4.728;2023-01-24T15:56:32;12.93;;;7.03;;
7487;SDS011;3785;52.260;4.728;2023-01-24T15:59:54;13.38;;;6.55;;
7487;SDS011;3785;52.260;4.728;2023-01-24T16:03:19;14.18;;;7.68;;
7487;SDS011;3785;52.260;4.728;2023-01-24T16:06:40;12.50;;;6.50;;
7487;SDS011;3785;52.260;4.728;2023-01-24T16:10:01;14.88;;;7.88;;
7487;SDS011;3785;52.260;4.728;2023-01-24T16:13:26;13.30;;;6.25;;
7487;SDS011;3785;52.260;4.728;2023-01-24T16:16:50;10.68;;;6.97;;
7487;SDS011;3785;52.260;4.728;2023-01-24T16:23:38;14.23;;;7.38;;
7487;SDS011;3785;52.260;4.728;2023-01-24T16:26:58;9.63;;;5.82;;
7487;SDS011;3785;52.260;4.728;2023-01-24T16:30:21;9.80;;;6.22;;
7487;SDS011;3785;52.260;4.728;2023-01-24T16:33:43;11.10;;;6.45;;
7487;SDS011;3785;52.260;4.728;2023-01-24T16:37:04;11.35;;;6.80;;
7487;SDS011;3785;52.260;4.728;2023-01-24T16:40:24;13.73;;;6.28;;
7487;SDS011;3785;52.260;4.728;2023-01-24T16:43:45;10.60;;;6.25;;
7487;SDS011;3785;52.260;4.728;2023-01-24T16:47:05;13.57;;;7.53;;
7487;SDS011;3785;52.260;4.728;2023-01-24T16:50:26;11.32;;;6.07;;
7487;SDS011;3785;52.260;4.728;2023-01-24T16:53:46;11.10;;;6.32;;
7487;SDS011;3785;52.260;4.728;2023-01-24T16:57:07;13.18;;;6.68;;
7487;SDS011;3785;52.260;4.728;2023-01-24T17:00:28;14.18;;;6.20;;
7487;SDS011;3785;52.260;4.728;2023-01-24T17:03:51;14.80;;;7.57;;
7487;SDS011;3785;52.260;4.728;2023-01-24T17:07:12;11.90;;;7.22;;
7487;SDS011;3785;52.260;4.728;2023-01-24T17:10:33;12.50;;;6.72;;
7487;SDS011;3785;52.260;4.728;2023-01-24T17:13:54;13.07;;;7.32;;
7487;SDS011;3785;52.260;4.728;2023-01-24T17:17:14;11.68;;;6.78;;
7487;SDS011;3785;52.260;4.728;2023-01-24T17:20:35;11.55;;;6.60;;
7487;SDS011;3785;52.260;4.728;2023-01-24T17:23:55;10.65;;;6.43;;
7487;SDS011;3785;52.260;4.728;2023-01-24T17:27:16;13.57;;;6.95;;
7487;SDS011;3785;52.260;4.728;2023-01-24T17:30:36;14.20;;;7.95;;
7487;SDS011;3785;52.260;4.728;2023-01-24T17:33:57;13.15;;;7.93;;
7487;SDS011;3785;52.260;4.728;2023-01-24T17:37:18;12.57;;;6.88;;
7487;SDS011;3785;52.260;4.728;2023-01-24T17:40:38;14.15;;;7.38;;
7487;SDS011;3785;52.260;4.728;2023-01-24T17:43:59;14.98;;;7.55;;
7487;SDS011;3785;52.260;4.728;2023-01-24T17:47:19;15.73;;;8.63;;
7487;SDS011;3785;52.260;4.728;2023-01-24T17:50:40;13.98;;;8.20;;
7487;SDS011;3785;52.260;4.728;2023-01-24T17:54:00;14.38;;;7.80;;
7487;SDS011;3785;52.260;4.728;2023-01-24T17:57:22;12.40;;;8.02;;
7487;SDS011;3785;52.260;4.728;2023-01-24T18:00:42;14.57;;;7.82;;
7487;SDS011;3785;52.260;4.728;2023-01-24T18:04:03;15.07;;;8.65;;
7487;SDS011;3785;52.260;4.728;2023-01-24T18:07:24;17.45;;;8.52;;
7487;SDS011;3785;52.260;4.728;2023-01-24T18:10:44;16.55;;;8.68;;
7487;SDS011;3785;52.260;4.728;2023-01-24T18:14:05;15.35;;;8.15;;
7487;SDS011;3785;52.260;4.728;2023-01-24T18:17:26;14.00;;;7.80;;
7487;SDS011;3785;52.260;4.728;2023-01-24T18:20:46;15.65;;;8.35;;
7487;SDS011;3785;52.260;4.728;2023-01-24T18:24:08;14.65;;;7.93;;
7487;SDS011;3785;52.260;4.728;2023-01-24T18:27:31;16.80;;;9.13;;
7487;SDS011;3785;52.260;4.728;2023-01-24T18:30:51;15.40;;;8.43;;
7487;SDS011;3785;52.260;4.728;2023-01-24T18:34:12;15.80;;;9.00;;
7487;SDS011;3785;52.260;4.728;2023-01-24T18:37:32;17.75;;;9.68;;
7487;SDS011;3785;52.260;4.728;2023-01-24T18:40:53;13.70;;;8.25;;
7487;SDS011;3785;52.260;4.728;2023-01-24T18:44:14;13.85;;;8.10;;
7487;SDS011;3785;52.260;4.728;2023-01-24T18:47:35;14.90;;;9.00;;
7487;SDS011;3785;52.260;4.728;2023-01-24T18:50:56;16.33;;;8.80;;
7487;SDS011;3785;52.260;4.728;2023-01-24T18:54:17;15.35;;;7.82;;
7487;SDS011;3785;52.260;4.728;2023-01-24T18:57:38;13.75;;;8.32;;
7487;SDS011;3785;52.260;4.728;2023-01-24T19:00:59;18.05;;;9.88;;
7487;SDS011;3785;52.260;4.728;2023-01-24T19:04:26;19.33;;;9.40;;
7487;SDS011;3785;52.260;4.728;2023-01-24T19:07:47;17.17;;;9.32;;
7487;SDS011;3785;52.260;4.728;2023-01-24T19:11:13;19.05;;;9.15;;
7487;SDS011;3785;52.260;4.728;2023-01-24T19:14:34;18.83;;;9.57;;
7487;SDS011;3785;52.260;4.728;2023-01-24T19:17:55;16.38;;;9.18;;
7487;SDS011;3785;52.260;4.728;2023-01-24T19:21:16;19.20;;;8.88;;
7487;SDS011;3785;52.260;4.728;2023-01-24T19:24:36;17.00;;;9.43;;
7487;SDS011;3785;52.260;4.728;2023-01-24T19:27:57;15.48;;;8.73;;
7487;SDS011;3785;52.260;4.728;2023-01-24T19:31:18;21.08;;;10.70;;
7487;SDS011;3785;52.260;4.728;2023-01-24T19:34:38;16.73;;;9.55;;
7487;SDS011;3785;52.260;4.728;2023-01-24T19:37:59;20.27;;;11.20;;
7487;SDS011;3785;52.260;4.728;2023-01-24T19:41:20;19.65;;;9.88;;
7487;SDS011;3785;52.260;4.728;2023-01-24T19:44:41;20.58;;;10.90;;
7487;SDS011;3785;52.260;4.728;2023-01-24T19:48:01;17.60;;;9.80;;
7487;SDS011;3785;52.260;4.728;2023-01-24T19:51:22;19.33;;;9.75;;
7487;SDS011;3785;52.260;4.728;2023-01-24T19:54:42;17.33;;;10.07;;
7487;SDS011;3785;52.260;4.728;2023-01-24T19:58:04;20.05;;;10.52;;
7487;SDS011;3785;52.260;4.728;2023-01-24T20:01:25;18.17;;;9.75;;
7487;SDS011;3785;52.260;4.728;2023-01-24T20:04:46;18.95;;;9.55;;
7487;SDS011;3785;52.260;4.728;2023-01-24T20:08:07;21.67;;;10.70;;
7487;SDS011;3785;52.260;4.728;2023-01-24T20:11:28;15.38;;;9.27;;
7487;SDS011;3785;52.260;4.728;2023-01-24T20:14:49;21.98;;;10.40;;
7487;SDS011;3785;52.260;4.728;2023-01-24T20:18:09;16.75;;;9.52;;
7487;SDS011;3785;52.260;4.728;2023-01-24T20:21:31;18.20;;;9.88;;
7487;SDS011;3785;52.260;4.728;2023-01-24T20:24:52;20.85;;;10.98;;
7487;SDS011;3785;52.260;4.728;2023-01-24T20:28:13;20.85;;;10.43;;
7487;SDS011;3785;52.260;4.728;2023-01-24T20:31:36;20.15;;;11.32;;
7487;SDS011;3785;52.260;4.728;2023-01-24T20:34:56;21.98;;;10.77;;
7487;SDS011;3785;52.260;4.728;2023-01-24T20:38:17;22.05;;;11.70;;
7487;SDS011;3785;52.260;4.728;2023-01-24T20:41:37;20.73;;;10.73;;
7487;SDS011;3785;52.260;4.728;2023-01-24T20:44:59;19.73;;;10.98;;
7487;SDS011;3785;52.260;4.728;2023-01-24T20:48:20;17.42;;;10.02;;
7487;SDS011;3785;52.260;4.728;2023-01-24T20:51:40;18.45;;;10.18;;
7487;SDS011;3785;52.260;4.728;2023-01-24T20:55:01;20.92;;;11.40;;
7487;SDS011;3785;52.260;4.728;2023-01-24T20:58:22;24.38;;;11.95;;
7487;SDS011;3785;52.260;4.728;2023-01-24T21:01:42;20.20;;;10.32;;
7487;SDS011;3785;52.260;4.728;2023-01-24T21:05:03;23.00;;;11.52;;
7487;SDS011;3785;52.260;4.728;2023-01-24T21:08:24;20.35;;;10.82;;
7487;SDS011;3785;52.260;4.728;2023-01-24T21:11:45;21.20;;;10.43;;
7487;SDS011;3785;52.260;4.728;2023-01-24T21:15:06;21.77;;;10.63;;
7487;SDS011;3785;52.260;4.728;2023-01-24T21:18:27;21.38;;;11.82;;
7487;SDS011;3785;52.260;4.728;2023-01-24T21:21:48;20.05;;;11.23;;
7487;SDS011;3785;52.260;4.728;2023-01-24T21:25:09;21.88;;;10.70;;
7487;SDS011;3785;52.260;4.728;2023-01-24T21:28:30;22.27;;;11.15;;
7487;SDS011;3785;52.260;4.728;2023-01-24T21:31:50;23.15;;;12.27;;
7487;SDS011;3785;52.260;4.728;2023-01-24T21:35:11;21.50;;;10.77;;
7487;SDS011;3785;52.260;4.728;2023-01-24T21:38:32;22.77;;;12.15;;
7487;SDS011;3785;52.260;4.728;2023-01-24T21:41:53;21.08;;;10.45;;
7487;SDS011;3785;52.260;4.728;2023-01-24T21:45:14;20.80;;;10.82;;
7487;SDS011;3785;52.260;4.728;2023-01-24T21:48:35;24.13;;;11.95;;
7487;SDS011;3785;52.260;4.728;2023-01-24T21:52:14;24.08;;;12.65;;
7487;SDS011;3785;52.260;4.728;2023-01-24T21:55:34;23.75;;;13.15;;
7487;SDS011;3785;52.260;4.728;2023-01-24T21:59:15;22.35;;;12.07;;
7487;SDS011;3785;52.260;4.728;2023-01-24T22:02:35;22.13;;;11.30;;
7487;SDS011;3785;52.260;4.728;2023-01-24T22:06:01;28.05;;;12.63;;
7487;SDS011;3785;52.260;4.728;2023-01-24T22:09:23;22.73;;;12.20;;
7487;SDS011;3785;52.260;4.728;2023-01-24T22:12:44;23.65;;;11.85;;
7487;SDS011;3785;52.260;4.728;2023-01-24T22:16:10;22.55;;;11.88;;
7487;SDS011;3785;52.260;4.728;2023-01-24T22:23:46;19.95;;;10.88;;
7487;SDS011;3785;52.260;4.728;2023-01-24T22:27:12;20.67;;;10.68;;
7487;SDS011;3785;52.260;4.728;2023-01-24T22:30:39;20.40;;;10.93;;
7487;SDS011;3785;52.260;4.728;2023-01-24T22:33:59;21.60;;;10.95;;
7487;SDS011;3785;52.260;4.728;2023-01-24T22:40:41;24.48;;;12.82;;
7487;SDS011;3785;52.260;4.728;2023-01-24T22:44:01;19.95;;;11.05;;
7487;SDS011;3785;52.260;4.728;2023-01-24T22:47:22;23.73;;;11.98;;
7487;SDS011;3785;52.260;4.728;2023-01-24T22:50:43;24.77;;;11.82;;
7487;SDS011;3785;52.260;4.728;2023-01-24T22:54:03;20.88;;;11.07;;
7487;SDS011;3785;52.260;4.728;2023-01-24T22:57:24;22.48;;;11.50;;
7487;SDS011;3785;52.260;4.728;2023-01-24T23:00:44;21.23;;;11.38;;